Latest Weather Observations for Outer Harbor (Black Pole)

IDS60801

Issued at 12:35 am CDT Sunday 23 November 2014 (issued every 30 minutes, with the page automatically refreshed every 10 minutes)

About weather observations | Map of weather stations | Latest weather observations for SA | Other Formats
Station Details ID: 023052 Name: BLACK POLE Lat: -34.73 Lon: 138.47 Height: 8.0 m
Data from the previous 72 hours. | See also: Recent months for locations in South Australia
Date/Time
CDT
Temp
°C
App
Temp
°C
Dew
Point
Rel
Hum
%
Delta-T
°C
Wind Press
QNH
hPa
Press
MSL
hPa
Rain
since 9 am
mm
Dir
 
Spd
km/h
Gust
km/h
Spd
kts
Gust
kts
23/12:30am - - - - - SSW 20 28 11 15 - - -
23/12:00am - - - - - SSW 24 28 13 15 - - -
 
Date/Time
CDT
Temp
°C
App
Temp
°C
Dew
Point
Rel
Hum
%
Delta-T
°C
Wind Press
QNH
hPa
Press
MSL
hPa
Rain
since 9 am
mm
Dir
 
Spd
km/h
Gust
km/h
Spd
kts
Gust
kts
22/11:30pm - - - - - S 26 32 14 17 - - -
22/11:00pm - - - - - SSW 33 37 18 20 - - -
22/10:30pm - - - - - SSW 32 39 17 21 - - -
22/10:00pm - - - - - SSW 28 33 15 18 - - -
22/09:30pm - - - - - SW 24 28 13 15 - - -
22/09:00pm - - - - - SW 20 24 11 13 - - -
22/08:30pm - - - - - SW 19 22 10 12 - - -
22/08:00pm - - - - - SW 19 22 10 12 - - -
22/07:30pm - - - - - SSW 24 30 13 16 - - -
22/07:00pm - - - - - SSW 26 33 14 18 - - -
22/06:30pm - - - - - SSW 28 33 15 18 - - -
22/06:00pm - - - - - SSW 26 32 14 17 - - -
22/05:30pm - - - - - SSW 28 37 15 20 - - -
22/05:00pm - - - - - SW 20 26 11 14 - - -
22/04:30pm - - - - - SW 20 24 11 13 - - -
22/04:00pm - - - - - SW 20 24 11 13 - - -
22/03:30pm - - - - - SW 13 17 7 9 - - -
22/03:00pm - - - - - SW 19 24 10 13 - - -
22/02:30pm - - - - - N 6 11 3 6 - - -
22/02:00pm - - - - - NE 20 28 11 15 - - -
22/01:30pm - - - - - N 7 11 4 6 - - -
22/01:00pm - - - - - NE 20 26 11 14 - - -
22/12:30pm - - - - - ENE 22 26 12 14 - - -
22/12:00pm - - - - - ENE 22 30 12 16 - - -
22/11:30am - - - - - E 24 28 13 15 - - -
22/11:00am - - - - - ENE 26 33 14 18 - - -
22/10:30am - - - - - ENE 28 37 15 20 - - -
22/10:00am - - - - - NE 13 19 7 10 - - -
22/09:30am - - - - - E 22 28 12 15 - - -
22/09:00am - - - - - ESE 22 26 12 14 - - -
22/08:30am - - - - - E 17 20 9 11 - - -
22/08:00am - - - - - E 20 22 11 12 - - -
22/07:30am - - - - - ESE 6 11 3 6 - - -
22/07:00am - - - - - N 11 15 6 8 - - -
22/06:30am - - - - - NE 22 28 12 15 - - -
22/06:00am - - - - - NNE 28 33 15 18 - - -
22/05:30am - - - - - N 20 28 11 15 - - -
22/05:00am - - - - - NE 30 35 16 19 - - -
22/04:30am - - - - - NE 33 39 18 21 - - -
22/04:00am - - - - - NE 32 37 17 20 - - -
22/03:30am - - - - - NE 28 33 15 18 - - -
22/03:00am - - - - - NE 32 39 17 21 - - -
22/02:30am - - - - - NE 32 37 17 20 - - -
22/02:00am - - - - - NE 30 35 16 19 - - -
22/01:30am - - - - - NE 24 32 13 17 - - -
22/01:00am - - - - - NE 26 30 14 16 - - -
22/12:30am - - - - - NE 20 26 11 14 - - -
22/12:00am - - - - - NE 15 19 8 10 - - -
 
Date/Time
CDT
Temp
°C
App
Temp
°C
Dew
Point
Rel
Hum
%
Delta-T
°C
Wind Press
QNH
hPa
Press
MSL
hPa
Rain
since 9 am
mm
Dir
 
Spd
km/h
Gust
km/h
Spd
kts
Gust
kts
21/11:30pm - - - - - NE 19 22 10 12 - - -
21/11:00pm - - - - - ENE 17 19 9 10 - - -
21/10:30pm - - - - - ENE 15 19 8 10 - - -
21/10:00pm - - - - - E 17 20 9 11 - - -
21/09:30pm - - - - - ESE 11 11 6 6 - - -
21/09:00pm - - - - - SE 7 9 4 5 - - -
21/08:30pm - - - - - S 9 11 5 6 - - -
21/08:00pm - - - - - S 9 11 5 6 - - -
21/07:30pm - - - - - SSW 11 13 6 7 - - -
21/07:00pm - - - - - S 11 13 6 7 - - -
21/06:30pm - - - - - S 11 13 6 7 - - -
21/06:00pm - - - - - S 13 15 7 8 - - -
21/05:30pm - - - - - S 11 13 6 7 - - -
21/05:00pm - - - - - S 9 11 5 6 - - -
21/04:30pm - - - - - S 9 9 5 5 - - -
21/04:00pm - - - - - S 7 7 4 4 - - -
21/03:30pm - - - - - SSE 4 6 2 3 - - -
21/03:00pm - - - - - SE 4 6 2 3 - - -
21/02:30pm - - - - - SE 6 7 3 4 - - -
21/02:00pm - - - - - SE 4 7 2 4 - - -
21/01:30pm - - - - - CALM 0 2 0 1 - - -
21/01:00pm - - - - - SSW 4 6 2 3 - - -
21/12:30pm - - - - - N 2 6 1 3 - - -
21/12:00pm - - - - - NNW 4 6 2 3 - - -
21/11:30am - - - - - WNW 4 7 2 4 - - -
21/11:00am - - - - - NW 6 11 3 6 - - -
21/10:30am - - - - - W 6 9 3 5 - - -
21/10:00am - - - - - W 4 7 2 4 - - -
21/09:30am - - - - - W 7 11 4 6 - - -
21/09:00am - - - - - W 9 15 5 8 - - -
21/08:30am - - - - - WNW 9 13 5 7 - - -
21/08:00am - - - - - W 9 13 5 7 - - -
21/07:30am - - - - - W 13 19 7 10 - - -
21/07:00am - - - - - W 13 19 7 10 - - -
21/06:30am - - - - - WNW 7 15 4 8 - - -
21/06:00am - - - - - WSW 17 22 9 12 - - -
21/05:30am - - - - - WSW 22 30 12 16 - - -
21/05:00am - - - - - WSW 19 24 10 13 - - -
21/04:30am - - - - - WSW 20 28 11 15 - - -
21/04:00am - - - - - WSW 20 26 11 14 - - -
21/03:30am - - - - - SW 20 26 11 14 - - -
21/03:00am - - - - - SW 22 28 12 15 - - -
21/02:30am - - - - - SW 22 28 12 15 - - -
21/02:00am - - - - - SW 24 30 13 16 - - -
21/01:30am - - - - - SW 24 30 13 16 - - -
21/01:00am - - - - - SSW 24 30 13 16 - - -
21/12:30am - - - - - SW 22 28 12 15 - - -
21/12:00am - - - - - SW 28 33 15 18 - - -
 
Date/Time
CDT
Temp
°C
App
Temp
°C
Dew
Point
Rel
Hum
%
Delta-T
°C
Wind Press
QNH
hPa
Press
MSL
hPa
Rain
since 9 am
mm
Dir
 
Spd
km/h
Gust
km/h
Spd
kts
Gust
kts
20/11:30pm - - - - - SSW 26 30 14 16 - - -
20/11:00pm - - - - - WSW 35 41 19 22 - - -
20/10:30pm - - - - - WSW 33 41 18 22 - - -
20/10:00pm - - - - - WSW 35 41 19 22 - - -
20/09:30pm - - - - - WSW 33 41 18 22 - - -
20/09:00pm - - - - - WSW 32 35 17 19 - - -
20/08:30pm - - - - - WSW 33 39 18 21 - - -
20/08:00pm - - - - - WSW 33 39 18 21 - - -
20/07:30pm - - - - - SW 33 41 18 22 - - -
20/07:00pm - - - - - SW 28 33 15 18 - - -
20/06:30pm - - - - - SW 28 32 15 17 - - -
20/06:00pm - - - - - SW 20 26 11 14 - - -
20/05:30pm - - - - - SW 28 32 15 17 - - -
20/05:00pm - - - - - W 24 32 13 17 - - -
20/04:30pm - - - - - W 19 22 10 12 - - -
20/04:00pm - - - - - W 19 24 10 13 - - -
20/03:30pm - - - - - NW 24 28 13 15 - - -
20/03:00pm - - - - - N 26 33 14 18 - - -
20/02:30pm - - - - - N 28 35 15 19 - - -
20/02:00pm - - - - - N 28 33 15 18 - - -
20/01:30pm - - - - - N 28 35 15 19 - - -
20/01:00pm - - - - - N 30 35 16 19 - - -
20/12:30pm - - - - - N 26 32 14 17 - - -
20/12:00pm - - - - - N 24 28 13 15 - - -
20/11:30am - - - - - N 22 35 12 19 - - -
20/11:00am - - - - - NNE 19 28 10 15 - - -
20/10:30am - - - - - N 17 20 9 11 - - -
20/10:00am - - - - - NNW 20 24 11 13 - - -
20/09:30am - - - - - NNW 24 28 13 15 - - -
20/09:00am - - - - - N 7 20 4 11 - - -
20/08:30am - - - - - WNW 4 - 2 - - - -
20/08:00am - - - - - WNW 24 35 13 19 - - -
20/07:30am - - - - - NNW 22 28 12 15 - - -
20/07:00am - - - - - NNW 26 33 14 18 - - -
20/06:30am - - - - - N 17 19 9 10 - - -
20/06:00am - - - - - NNE 13 17 7 9 - - -
20/05:30am - - - - - E 11 15 6 8 - - -
20/05:00am - - - - - NE 9 11 5 6 - - -
20/04:30am - - - - - NNW 13 17 7 9 - - -
20/04:00am - - - - - NW 19 20 10 11 - - -
20/03:30am - - - - - WNW 24 28 13 15 - - -
20/03:00am - - - - - NNW 20 32 11 17 - - -
20/02:30am - - - - - NNW 19 22 10 12 - - -
20/02:00am - - - - - NNE 17 20 9 11 - - -
20/01:30am - - - - - NE 20 22 11 12 - - -
20/01:00am - - - - - NE 22 26 12 14 - - -

Other Formats:

Comma delimited format used in spreadsheet applications
http://www.bom.gov.au/fwo/IDS60801/IDS60801.95675.axf

JavaScript Object Notation format (JSON) in row-major order
http://www.bom.gov.au/fwo/IDS60801/IDS60801.95675.json